createdAt,value
2018-01-18T00:00:43.954Z,983.59
2018-01-18T00:01:43.870Z,983.65
2018-01-18T00:02:43.786Z,983.66
2018-01-18T00:03:43.704Z,983.66
2018-01-18T00:04:43.622Z,983.60
2018-01-18T00:05:43.540Z,983.62
2018-01-18T00:06:43.457Z,983.55
2018-01-18T00:07:43.373Z,983.47
2018-01-18T00:08:43.292Z,983.49
2018-01-18T00:09:43.210Z,983.49
2018-01-18T00:10:43.125Z,983.52
2018-01-18T00:11:43.043Z,983.51
2018-01-18T00:12:42.960Z,983.56
2018-01-18T00:13:42.878Z,983.51
2018-01-18T00:14:42.794Z,983.47
2018-01-18T00:15:42.712Z,983.42
2018-01-18T00:16:42.630Z,983.44
2018-01-18T00:17:42.547Z,983.42
2018-01-18T00:18:42.465Z,983.45
2018-01-18T00:19:42.382Z,983.43
2018-01-18T00:20:42.300Z,983.35
2018-01-18T00:21:42.217Z,983.36
2018-01-18T00:22:42.133Z,983.36
2018-01-18T00:23:42.066Z,983.41
2018-01-18T00:24:41.969Z,983.46
2018-01-18T00:25:41.886Z,983.39
2018-01-18T00:26:41.802Z,983.48
2018-01-18T00:27:41.720Z,983.45
2018-01-18T00:28:41.638Z,983.44
2018-01-18T00:29:41.555Z,983.33
2018-01-18T00:30:41.472Z,983.31
2018-01-18T00:31:41.390Z,983.30
2018-01-18T00:32:41.307Z,983.28
2018-01-18T00:33:41.225Z,983.28
2018-01-18T00:34:41.143Z,983.22
2018-01-18T00:35:41.060Z,983.29
2018-01-18T00:36:40.978Z,983.14
2018-01-18T00:37:40.895Z,983.16
2018-01-18T00:38:40.812Z,983.18
2018-01-18T00:39:40.728Z,983.16
2018-01-18T00:40:40.647Z,983.20
2018-01-18T00:41:40.565Z,983.17
2018-01-18T00:42:40.481Z,983.12
2018-01-18T00:43:40.399Z,983.18
2018-01-18T00:44:40.317Z,983.13
2018-01-18T00:45:40.235Z,983.13
2018-01-18T00:46:40.152Z,983.16
2018-01-18T00:47:40.070Z,983.11
2018-01-18T00:48:39.988Z,983.10
2018-01-18T00:49:39.904Z,983.16
2018-01-18T00:50:39.821Z,983.06
2018-01-18T00:51:39.739Z,983.04
2018-01-18T00:52:39.657Z,982.98
2018-01-18T00:53:39.574Z,982.92
2018-01-18T00:54:39.489Z,982.98
2018-01-18T00:55:39.408Z,982.95
2018-01-18T00:56:39.326Z,982.87
2018-01-18T00:57:39.244Z,982.81
2018-01-18T00:58:39.160Z,982.80
2018-01-18T00:59:39.078Z,982.85
2018-01-18T01:00:38.995Z,982.75
2018-01-18T01:01:38.912Z,982.78
2018-01-18T01:02:38.828Z,982.88
2018-01-18T01:03:38.746Z,982.86
2018-01-18T01:04:38.663Z,982.85
2018-01-18T01:05:38.582Z,982.85
2018-01-18T01:06:38.495Z,982.86
2018-01-18T01:07:38.416Z,982.75
2018-01-18T01:08:38.333Z,982.82
2018-01-18T01:09:38.249Z,982.89
2018-01-18T01:10:38.166Z,982.88
2018-01-18T01:11:38.083Z,982.85
2018-01-18T01:12:38.000Z,982.79
2018-01-18T01:13:37.918Z,982.88
2018-01-18T01:14:37.834Z,982.83
2018-01-18T01:15:37.751Z,982.81
2018-01-18T01:16:37.669Z,983.02
2018-01-18T01:17:37.586Z,982.80
2018-01-18T01:18:37.502Z,982.81
2018-01-18T01:19:37.420Z,982.88
2018-01-18T01:20:37.337Z,982.84
2018-01-18T01:21:37.254Z,982.87
2018-01-18T01:22:37.171Z,982.73
2018-01-18T01:23:37.088Z,982.76
2018-01-18T01:24:37.004Z,982.72
2018-01-18T01:25:36.922Z,982.84
2018-01-18T01:26:36.838Z,982.83
2018-01-18T01:27:36.756Z,982.76
2018-01-18T01:28:36.676Z,982.69
2018-01-18T01:29:36.591Z,982.77
2018-01-18T01:30:36.510Z,982.74
2018-01-18T01:31:36.425Z,982.84
2018-01-18T01:32:36.342Z,982.76
2018-01-18T01:33:36.262Z,982.75
2018-01-18T01:34:36.176Z,982.76
2018-01-18T01:35:36.093Z,982.85
2018-01-18T01:36:36.010Z,982.72
2018-01-18T01:37:35.928Z,982.77
2018-01-18T01:38:35.845Z,982.77
2018-01-18T01:39:35.763Z,982.80
2018-01-18T01:40:35.679Z,982.75
2018-01-18T01:41:35.598Z,982.64
2018-01-18T01:42:35.513Z,982.59
2018-01-18T01:43:35.432Z,982.71
2018-01-18T01:44:35.350Z,982.60
2018-01-18T01:45:35.265Z,982.68
2018-01-18T01:46:35.184Z,982.65
2018-01-18T01:47:35.101Z,982.56
2018-01-18T01:48:35.018Z,982.54
2018-01-18T01:49:34.936Z,982.47
2018-01-18T01:50:34.853Z,982.47
2018-01-18T01:51:34.770Z,982.41
2018-01-18T01:52:34.686Z,982.40
2018-01-18T01:53:34.606Z,982.43
2018-01-18T01:54:34.523Z,982.39
2018-01-18T01:55:34.440Z,982.38
2018-01-18T01:56:34.357Z,982.40
2018-01-18T01:57:34.275Z,982.40
2018-01-18T01:58:34.196Z,982.41
2018-01-18T01:59:34.109Z,982.29
2018-01-18T02:00:34.026Z,982.20
2018-01-18T02:01:33.943Z,982.35
2018-01-18T02:02:33.859Z,982.35
2018-01-18T02:03:33.778Z,982.35
2018-01-18T02:04:33.695Z,982.29
2018-01-18T02:05:33.613Z,982.39
2018-01-18T02:06:33.529Z,982.32
2018-01-18T02:07:33.446Z,982.20
2018-01-18T02:08:33.363Z,982.32
2018-01-18T02:09:33.280Z,982.30
2018-01-18T02:10:33.198Z,982.40
2018-01-18T02:11:33.115Z,982.43
2018-01-18T02:12:33.033Z,982.31
2018-01-18T02:13:32.950Z,982.25
2018-01-18T02:14:32.870Z,982.29
2018-01-18T02:15:32.784Z,982.29
2018-01-18T02:16:32.702Z,982.21
2018-01-18T02:17:32.619Z,982.09
2018-01-18T02:18:32.536Z,982.18
2018-01-18T02:19:32.453Z,982.08
2018-01-18T02:20:32.370Z,982.02
2018-01-18T02:21:32.288Z,982.00
2018-01-18T02:22:32.206Z,981.98
2018-01-18T02:23:32.121Z,982.01
2018-01-18T02:24:32.038Z,981.91
2018-01-18T02:25:31.956Z,981.97
2018-01-18T02:26:31.873Z,981.98
2018-01-18T02:27:31.790Z,981.93
2018-01-18T02:28:31.707Z,981.98
2018-01-18T02:29:31.625Z,981.84
2018-01-18T02:30:31.541Z,981.80
2018-01-18T02:31:31.459Z,981.80
2018-01-18T02:32:31.375Z,981.67
2018-01-18T02:33:31.293Z,981.58
2018-01-18T02:34:31.210Z,981.67
2018-01-18T02:36:31.043Z,981.52
2018-01-18T02:37:30.961Z,981.52
2018-01-18T02:38:30.877Z,981.53
2018-01-18T02:39:30.794Z,981.46
2018-01-18T02:40:30.712Z,981.39
2018-01-18T02:41:30.778Z,981.44
2018-01-18T02:42:30.544Z,981.26
2018-01-18T02:43:30.462Z,981.36
2018-01-18T02:44:30.379Z,981.37
2018-01-18T02:45:30.296Z,981.37
2018-01-18T02:46:30.212Z,981.41
2018-01-18T02:47:30.130Z,981.28
2018-01-18T02:48:30.046Z,981.25
2018-01-18T02:49:29.964Z,981.21
2018-01-18T02:50:29.879Z,981.17
2018-01-18T02:51:29.797Z,981.17
2018-01-18T02:52:29.714Z,981.15
2018-01-18T02:53:29.630Z,981.15
2018-01-18T02:54:29.547Z,981.19
2018-01-18T02:55:29.465Z,981.18
2018-01-18T02:56:29.381Z,981.17
2018-01-18T02:57:29.299Z,981.20
2018-01-18T02:58:29.214Z,981.15
2018-01-18T02:59:29.137Z,981.11
2018-01-18T03:00:29.050Z,981.12
2018-01-18T03:01:28.966Z,981.09
2018-01-18T03:02:28.883Z,981.13
2018-01-18T03:03:28.799Z,981.10
2018-01-18T03:04:28.719Z,981.15
2018-01-18T03:05:28.634Z,981.08
2018-01-18T03:06:28.552Z,980.99
2018-01-18T03:07:28.466Z,980.99
2018-01-18T03:08:28.384Z,981.02
2018-01-18T03:09:28.302Z,980.95
2018-01-18T03:10:28.217Z,980.98
2018-01-18T03:11:28.135Z,981.00
2018-01-18T03:12:28.052Z,980.93
2018-01-18T03:13:27.970Z,980.95
2018-01-18T03:14:27.886Z,980.92
2018-01-18T03:15:27.805Z,980.94
2018-01-18T03:16:27.720Z,980.82
2018-01-18T03:17:27.641Z,980.81
2018-01-18T03:18:27.553Z,980.82
2018-01-18T03:19:27.473Z,980.73
2018-01-18T03:20:27.390Z,980.65
2018-01-18T03:21:27.307Z,980.61
2018-01-18T03:22:27.223Z,980.62
2018-01-18T03:23:27.140Z,980.58
2018-01-18T03:24:27.058Z,980.62
2018-01-18T03:25:26.975Z,980.54
2018-01-18T03:26:26.893Z,980.68
2018-01-18T03:27:26.808Z,980.56
2018-01-18T03:28:26.728Z,980.61
2018-01-18T03:29:26.645Z,980.55
2018-01-18T03:30:26.562Z,980.48
2018-01-18T03:31:26.479Z,980.47
2018-01-18T03:32:26.396Z,980.45
2018-01-18T03:33:26.314Z,980.51
2018-01-18T03:34:26.230Z,980.44
2018-01-18T03:35:26.148Z,980.38
2018-01-18T03:36:26.065Z,980.41
2018-01-18T03:37:25.983Z,980.33
2018-01-18T03:38:25.900Z,980.28
2018-01-18T03:39:25.817Z,980.20
2018-01-18T03:40:25.734Z,980.20
2018-01-18T03:41:25.652Z,980.09
2018-01-18T03:42:25.568Z,980.02
2018-01-18T03:43:25.486Z,980.09
2018-01-18T03:44:25.404Z,980.04
2018-01-18T03:45:25.323Z,980.02
2018-01-18T03:46:25.238Z,980.03
2018-01-18T03:47:25.156Z,979.86
2018-01-18T03:48:25.073Z,979.86
2018-01-18T03:49:24.993Z,979.81
2018-01-18T03:50:24.907Z,979.73
2018-01-18T03:51:24.824Z,979.58
2018-01-18T03:52:24.742Z,979.58
2018-01-18T03:53:24.808Z,979.52
2018-01-18T03:54:24.578Z,979.57
2018-01-18T03:55:24.494Z,979.54
2018-01-18T03:56:24.411Z,979.53
2018-01-18T03:57:24.329Z,979.55
2018-01-18T03:58:24.247Z,979.56
2018-01-18T03:59:24.164Z,979.55
2018-01-18T04:00:24.082Z,979.46
2018-01-18T04:01:23.999Z,979.46
2018-01-18T04:02:23.915Z,979.41
2018-01-18T04:03:23.832Z,979.37
2018-01-18T04:04:23.751Z,979.36
2018-01-18T04:05:23.669Z,979.34
2018-01-18T04:06:23.587Z,979.32
2018-01-18T04:07:23.504Z,979.35
2018-01-18T04:08:23.422Z,979.29
2018-01-18T04:09:23.341Z,979.25
2018-01-18T04:10:23.256Z,979.23
2018-01-18T04:11:23.174Z,979.24
2018-01-18T04:12:23.092Z,979.14
2018-01-18T04:13:23.010Z,979.14
2018-01-18T04:14:22.927Z,979.08
2018-01-18T04:15:22.845Z,979.06
2018-01-18T04:16:22.763Z,979.09
2018-01-18T04:17:22.681Z,978.96
2018-01-18T04:18:22.598Z,978.98
2018-01-18T04:19:22.516Z,978.81
2018-01-18T04:20:22.437Z,978.82
2018-01-18T04:21:22.355Z,978.74
2018-01-18T04:22:22.268Z,978.73
2018-01-18T04:23:22.187Z,978.69
2018-01-18T04:24:22.104Z,978.65
2018-01-18T04:25:22.022Z,978.66
2018-01-18T04:26:21.939Z,978.58
2018-01-18T04:27:21.856Z,978.42
2018-01-18T04:28:21.775Z,978.47
2018-01-18T04:29:21.692Z,978.41
2018-01-18T04:30:21.609Z,978.45
2018-01-18T04:31:21.533Z,978.35
2018-01-18T04:32:21.445Z,978.40
2018-01-18T04:33:21.363Z,978.24
2018-01-18T04:34:21.279Z,978.27
2018-01-18T04:35:21.197Z,978.10
2018-01-18T04:36:21.115Z,978.20
2018-01-18T04:37:21.032Z,978.11
2018-01-18T04:38:20.950Z,978.09
2018-01-18T04:39:20.866Z,977.99
2018-01-18T04:40:20.784Z,977.93
2018-01-18T04:41:20.702Z,977.95
2018-01-18T04:42:20.619Z,977.75
2018-01-18T04:43:20.537Z,977.85
2018-01-18T04:44:20.454Z,977.83
2018-01-18T04:45:20.371Z,977.74
2018-01-18T04:46:20.288Z,977.72
2018-01-18T04:47:20.206Z,977.73
2018-01-18T04:48:20.123Z,977.54
2018-01-18T04:49:20.040Z,977.70
2018-01-18T04:50:19.957Z,977.52
2018-01-18T04:51:19.876Z,977.60
2018-01-18T04:52:19.793Z,977.39
2018-01-18T04:53:19.709Z,977.39
2018-01-18T04:54:19.627Z,977.29
2018-01-18T04:55:19.544Z,977.19
2018-01-18T04:56:19.462Z,977.22
2018-01-18T04:57:19.380Z,977.15
2018-01-18T04:58:19.296Z,977.29
2018-01-18T04:59:19.214Z,977.03
2018-01-18T05:00:19.132Z,977.18
2018-01-18T05:01:19.050Z,977.14
2018-01-18T05:02:18.966Z,976.83
2018-01-18T05:03:18.883Z,976.96
2018-01-18T05:04:18.801Z,977.03
2018-01-18T05:05:18.718Z,976.96
2018-01-18T05:06:18.635Z,976.96
2018-01-18T05:07:18.553Z,976.96
2018-01-18T05:08:18.470Z,976.89
2018-01-18T05:09:18.387Z,976.90
2018-01-18T05:10:18.304Z,976.77
2018-01-18T05:11:18.370Z,976.89
2018-01-18T05:12:18.138Z,976.62
2018-01-18T05:13:18.056Z,976.79
2018-01-18T05:14:17.973Z,976.72
2018-01-18T05:15:17.890Z,976.73
2018-01-18T05:16:17.808Z,976.71
2018-01-18T05:17:17.724Z,976.51
2018-01-18T05:18:17.641Z,976.48
2018-01-18T05:19:17.560Z,976.68
2018-01-18T05:20:17.476Z,976.46
2018-01-18T05:21:17.393Z,976.30
2018-01-18T05:22:17.308Z,976.38
2018-01-18T05:23:17.226Z,976.28
2018-01-18T05:24:17.144Z,976.24
2018-01-18T05:25:17.065Z,976.15
2018-01-18T05:26:16.977Z,976.15
2018-01-18T05:27:16.893Z,975.96
2018-01-18T05:28:16.811Z,975.79
2018-01-18T05:29:16.729Z,975.94
2018-01-18T05:30:16.645Z,975.83
2018-01-18T05:31:16.562Z,975.82
2018-01-18T05:32:16.480Z,975.71
2018-01-18T05:33:16.397Z,975.70
2018-01-18T05:34:16.313Z,975.71
2018-01-18T05:35:16.230Z,975.73
2018-01-18T05:36:16.148Z,975.84
2018-01-18T05:37:16.064Z,975.82
2018-01-18T05:38:15.981Z,975.75
2018-01-18T05:39:15.901Z,975.65
2018-01-18T05:40:15.815Z,975.90
2018-01-18T05:41:15.734Z,975.62
2018-01-18T05:42:15.798Z,975.53
2018-01-18T05:43:15.566Z,975.45
2018-01-18T05:44:15.482Z,975.46
2018-01-18T05:45:15.400Z,975.31
2018-01-18T05:46:15.316Z,975.23
2018-01-18T05:47:15.234Z,975.22
2018-01-18T05:48:15.151Z,975.25
2018-01-18T05:49:15.068Z,975.20
2018-01-18T05:50:14.984Z,975.23
2018-01-18T05:51:14.901Z,975.02
2018-01-18T05:52:14.819Z,975.00
2018-01-18T05:53:14.736Z,974.89
2018-01-18T05:54:14.652Z,974.97
2018-01-18T05:55:14.571Z,974.98
2018-01-18T05:56:14.487Z,974.91
2018-01-18T05:57:14.404Z,974.76
2018-01-18T05:58:14.320Z,974.81
2018-01-18T05:59:14.238Z,975.00
2018-01-18T06:00:14.154Z,974.82
2018-01-18T06:01:14.072Z,974.83
2018-01-18T06:02:13.988Z,974.99
2018-01-18T06:03:13.906Z,974.85
2018-01-18T06:04:13.822Z,974.47
2018-01-18T06:05:13.740Z,974.48
2018-01-18T06:06:13.655Z,974.54
2018-01-18T06:07:13.574Z,974.48
2018-01-18T06:08:13.489Z,974.42
2018-01-18T06:09:13.406Z,974.47
2018-01-18T06:10:13.326Z,974.45
2018-01-18T06:11:13.238Z,974.36
2018-01-18T06:12:13.156Z,974.33
2018-01-18T06:13:13.072Z,974.37
2018-01-18T06:14:12.989Z,974.35
2018-01-18T06:15:12.906Z,974.40
2018-01-18T06:16:12.823Z,974.33
2018-01-18T06:17:12.739Z,974.48
2018-01-18T06:18:12.656Z,974.25
2018-01-18T06:19:12.573Z,974.10
2018-01-18T06:20:12.489Z,973.97
2018-01-18T06:21:12.405Z,974.06
2018-01-18T06:22:12.325Z,973.97
2018-01-18T06:23:12.239Z,973.77
2018-01-18T06:24:12.157Z,974.03
2018-01-18T06:25:12.074Z,973.85
2018-01-18T06:26:11.988Z,973.89
2018-01-18T06:27:11.906Z,973.85
2018-01-18T06:28:11.822Z,973.95
2018-01-18T06:29:11.739Z,973.56
2018-01-18T06:30:11.654Z,973.86
2018-01-18T06:31:11.571Z,974.00
2018-01-18T06:32:11.488Z,973.86
2018-01-18T06:33:11.405Z,973.82
2018-01-18T06:34:11.320Z,973.72
2018-01-18T06:35:11.237Z,973.86
2018-01-18T06:36:11.154Z,973.72
2018-01-18T06:37:11.071Z,973.82
2018-01-18T06:38:10.986Z,973.66
2018-01-18T06:39:10.904Z,973.78
2018-01-18T06:40:10.821Z,973.94
2018-01-18T06:41:10.737Z,973.88
2018-01-18T06:42:10.653Z,973.84
2018-01-18T06:43:10.569Z,973.86
2018-01-18T06:44:10.486Z,973.73
2018-01-18T06:45:10.403Z,973.81
2018-01-18T06:46:10.319Z,973.95
2018-01-18T06:47:10.236Z,973.48
2018-01-18T06:48:10.153Z,973.49
2018-01-18T06:49:10.070Z,973.79
2018-01-18T06:50:09.986Z,973.68
2018-01-18T06:51:09.904Z,973.84
2018-01-18T06:52:09.825Z,973.60
2018-01-18T06:53:09.736Z,973.74
2018-01-18T06:54:09.652Z,973.99
2018-01-18T06:55:09.569Z,973.77
2018-01-18T06:56:09.486Z,973.60
2018-01-18T06:57:09.402Z,973.58
2018-01-18T06:58:09.319Z,973.50
2018-01-18T06:59:09.235Z,973.45
2018-01-18T07:00:09.153Z,973.36
2018-01-18T07:01:09.068Z,973.40
2018-01-18T07:02:08.984Z,973.65
2018-01-18T07:03:08.902Z,973.52
2018-01-18T07:04:08.818Z,973.47
2018-01-18T07:05:08.741Z,973.50
2018-01-18T07:06:08.652Z,973.44
2018-01-18T07:07:08.568Z,973.42
2018-01-18T07:08:08.484Z,973.55
2018-01-18T07:09:08.402Z,973.44
2018-01-18T07:10:08.317Z,973.46
2018-01-18T07:11:08.235Z,973.23
2018-01-18T07:12:08.157Z,973.32
2018-01-18T07:13:08.068Z,973.47
2018-01-18T07:14:07.984Z,973.20
2018-01-18T07:15:07.902Z,973.23
2018-01-18T07:16:07.818Z,973.26
2018-01-18T07:17:07.736Z,972.97
2018-01-18T07:18:07.652Z,973.19
2018-01-18T07:19:07.568Z,973.29
2018-01-18T07:20:07.485Z,973.19
2018-01-18T07:21:07.402Z,973.09
2018-01-18T07:22:07.317Z,972.99
2018-01-18T07:23:07.234Z,973.26
2018-01-18T07:24:07.151Z,973.20
2018-01-18T07:25:07.068Z,973.06
2018-01-18T07:26:06.984Z,973.15
2018-01-18T07:27:06.900Z,972.91
2018-01-18T07:28:06.818Z,972.99
2018-01-18T07:29:06.735Z,972.99
2018-01-18T07:30:06.656Z,972.92
2018-01-18T07:31:06.568Z,972.84
2018-01-18T07:32:06.486Z,972.87
2018-01-18T07:33:06.402Z,972.85
2018-01-18T07:34:06.318Z,972.76
2018-01-18T07:35:06.235Z,972.98
2018-01-18T07:36:06.158Z,972.92
2018-01-18T07:37:06.070Z,972.86
2018-01-18T07:38:05.992Z,972.99
2018-01-18T07:39:05.901Z,972.79
2018-01-18T07:40:05.820Z,972.66
2018-01-18T07:41:05.740Z,972.97
2018-01-18T07:42:05.656Z,972.82
2018-01-18T07:43:05.569Z,972.80
2018-01-18T07:44:05.488Z,972.70
2018-01-18T07:45:05.405Z,972.90
2018-01-18T07:46:05.320Z,972.68
2018-01-18T07:47:05.238Z,972.75
2018-01-18T07:48:05.155Z,972.71
2018-01-18T07:49:05.073Z,972.75
2018-01-18T07:50:04.994Z,972.58
2018-01-18T07:51:04.905Z,972.55
2018-01-18T07:52:04.822Z,972.71
2018-01-18T07:53:04.740Z,972.61
2018-01-18T07:54:04.655Z,972.52
2018-01-18T07:55:04.573Z,972.50
2018-01-18T07:56:04.490Z,972.68
2018-01-18T07:57:04.408Z,972.68
2018-01-18T07:58:04.322Z,972.75
2018-01-18T07:59:04.240Z,972.69
2018-01-18T08:00:04.158Z,972.57
2018-01-18T08:01:04.075Z,972.44
2018-01-18T08:02:03.992Z,972.49
2018-01-18T08:03:03.910Z,972.33
2018-01-18T08:04:03.831Z,971.93
2018-01-18T08:05:03.742Z,972.48
2018-01-18T08:06:03.660Z,972.23
2018-01-18T08:07:03.577Z,972.40
2018-01-18T08:08:03.494Z,972.58
2018-01-18T08:09:03.412Z,972.39
2018-01-18T08:10:03.328Z,972.54
2018-01-18T08:11:03.246Z,972.36
2018-01-18T08:12:03.163Z,972.55
2018-01-18T08:13:03.080Z,972.84
2018-01-18T08:14:02.996Z,972.31
2018-01-18T08:15:02.914Z,972.29
2018-01-18T08:16:02.831Z,972.38
2018-01-18T08:17:02.749Z,972.25
2018-01-18T08:18:02.665Z,972.05
2018-01-18T08:19:02.583Z,972.00
2018-01-18T08:20:02.501Z,972.23
2018-01-18T08:21:02.418Z,972.50
2018-01-18T08:22:02.335Z,972.03
2018-01-18T08:23:02.251Z,972.05
2018-01-18T08:24:02.173Z,971.98
2018-01-18T08:25:02.088Z,972.09
2018-01-18T08:26:02.005Z,971.80
2018-01-18T08:27:01.921Z,971.86
2018-01-18T08:28:01.840Z,971.81
2018-01-18T08:29:01.758Z,971.67
2018-01-18T08:30:01.680Z,971.92
2018-01-18T08:31:01.592Z,971.67
2018-01-18T08:32:01.510Z,971.73
2018-01-18T08:33:01.428Z,971.61
2018-01-18T08:34:01.344Z,971.66
2018-01-18T08:35:01.262Z,971.93
2018-01-18T08:36:01.180Z,971.65
2018-01-18T08:37:01.097Z,971.59
2018-01-18T08:38:01.014Z,971.59
2018-01-18T08:39:00.932Z,971.74
2018-01-18T08:40:00.850Z,971.54
2018-01-18T08:41:00.768Z,971.60
2018-01-18T08:42:00.685Z,971.57
2018-01-18T08:43:00.603Z,971.57
2018-01-18T08:44:00.520Z,971.65
2018-01-18T08:45:00.439Z,971.62
2018-01-18T08:46:00.355Z,971.52
2018-01-18T08:47:00.273Z,971.76
2018-01-18T08:48:00.192Z,971.62
2018-01-18T08:49:00.114Z,971.79
2018-01-18T08:50:00.032Z,971.72
2018-01-18T08:50:59.945Z,971.65
2018-01-18T08:51:59.863Z,971.45
2018-01-18T08:52:59.781Z,971.80
2018-01-18T08:53:59.697Z,971.69
2018-01-18T08:54:59.616Z,971.82
2018-01-18T08:55:59.535Z,971.91
2018-01-18T08:56:59.452Z,972.00
2018-01-18T08:57:59.371Z,971.78
2018-01-18T08:58:59.288Z,972.06
2018-01-18T08:59:59.208Z,971.83
2018-01-18T09:00:59.125Z,971.94
2018-01-18T09:01:59.043Z,972.11
2018-01-18T09:02:58.961Z,972.06
2018-01-18T09:03:58.879Z,972.08
2018-01-18T09:04:58.797Z,972.68
2018-01-18T09:05:58.715Z,972.22
2018-01-18T09:06:58.632Z,972.14
2018-01-18T09:07:58.550Z,972.29
2018-01-18T09:08:58.469Z,972.27
2018-01-18T09:09:58.386Z,972.15
2018-01-18T09:10:58.303Z,972.11
2018-01-18T09:11:58.223Z,972.11
2018-01-18T09:12:58.141Z,972.22
2018-01-18T09:13:58.058Z,972.05
2018-01-18T09:14:57.976Z,972.42
2018-01-18T09:15:57.895Z,972.32
2018-01-18T09:16:57.813Z,972.24
2018-01-18T09:17:57.730Z,972.24
2018-01-18T09:18:57.648Z,972.22
2018-01-18T09:19:57.567Z,972.22
2018-01-18T09:20:57.485Z,972.26
2018-01-18T09:21:57.403Z,971.90
2018-01-18T09:22:57.320Z,972.12
2018-01-18T09:23:57.238Z,971.96
2018-01-18T09:24:57.156Z,971.74
2018-01-18T09:25:57.074Z,971.81
2018-01-18T09:26:56.992Z,971.77
2018-01-18T09:27:56.910Z,971.72
2018-01-18T09:28:56.833Z,971.77
2018-01-18T09:29:56.747Z,971.89
2018-01-18T09:30:56.665Z,971.95
2018-01-18T09:31:56.584Z,971.76
2018-01-18T09:32:56.502Z,972.03
2018-01-18T09:33:56.420Z,971.80
2018-01-18T09:34:56.338Z,971.86
2018-01-18T09:35:56.257Z,971.80
2018-01-18T09:36:56.175Z,971.92
2018-01-18T09:37:56.093Z,971.83
2018-01-18T09:38:56.012Z,971.68
2018-01-18T09:39:55.930Z,971.78
2018-01-18T09:40:55.849Z,971.43
2018-01-18T09:41:55.766Z,971.73
2018-01-18T09:42:55.835Z,971.73
2018-01-18T09:43:55.606Z,971.76
2018-01-18T09:44:55.523Z,971.71
2018-01-18T09:45:55.441Z,971.36
2018-01-18T09:46:55.360Z,971.54
2018-01-18T09:47:55.279Z,971.59
2018-01-18T09:48:55.198Z,971.80
2018-01-18T09:49:55.116Z,971.57
2018-01-18T09:50:55.035Z,971.68
2018-01-18T09:51:54.954Z,971.75
2018-01-18T09:52:54.873Z,971.61
2018-01-18T09:53:54.790Z,971.58
2018-01-18T09:54:54.713Z,971.29
2018-01-18T09:55:54.629Z,971.46
2018-01-18T09:56:54.547Z,971.67
2018-01-18T09:57:54.466Z,971.44
2018-01-18T09:58:54.386Z,971.80
2018-01-18T09:59:54.305Z,971.70
2018-01-18T10:00:54.224Z,971.60
2018-01-18T10:01:54.142Z,971.75
2018-01-18T10:02:54.061Z,971.87
2018-01-18T10:03:53.983Z,971.80
2018-01-18T10:04:53.901Z,971.57
2018-01-18T10:05:53.819Z,971.48
2018-01-18T10:06:53.738Z,971.77
2018-01-18T10:07:53.657Z,971.76
2018-01-18T10:08:53.625Z,971.66
2018-01-18T10:09:53.495Z,971.56
2018-01-18T10:10:53.414Z,971.58
2018-01-18T10:11:53.334Z,971.70
2018-01-18T10:12:53.254Z,971.56
2018-01-18T10:13:53.172Z,971.32
2018-01-18T10:14:53.090Z,971.58
2018-01-18T10:15:53.012Z,971.33
2018-01-18T10:16:52.933Z,971.30
2018-01-18T10:17:52.849Z,971.41
2018-01-18T10:18:52.768Z,971.60
2018-01-18T10:19:52.688Z,971.38
2018-01-18T10:20:52.608Z,971.55
2018-01-18T10:21:52.527Z,971.43
2018-01-18T10:22:52.446Z,971.52
2018-01-18T10:23:52.366Z,971.32
2018-01-18T10:24:52.286Z,971.53
2018-01-18T10:25:52.204Z,971.48
2018-01-18T10:26:52.124Z,971.47
2018-01-18T10:27:52.044Z,971.42
2018-01-18T10:28:51.964Z,971.51
2018-01-18T10:29:51.882Z,971.37
2018-01-18T10:30:51.803Z,971.54
2018-01-18T10:31:51.722Z,971.44
2018-01-18T10:32:51.642Z,971.59
2018-01-18T10:33:51.564Z,971.51
2018-01-18T10:34:51.482Z,971.34
2018-01-18T10:35:51.402Z,971.34
2018-01-18T10:36:51.325Z,971.27
2018-01-18T10:37:51.240Z,971.55
2018-01-18T10:38:51.161Z,971.34
2018-01-18T10:39:51.122Z,971.55
2018-01-18T10:40:51.000Z,971.48
2018-01-18T10:41:50.920Z,971.44
2018-01-18T10:42:50.840Z,971.71
2018-01-18T10:43:50.760Z,971.84
2018-01-18T10:44:50.686Z,971.43
2018-01-18T10:45:50.599Z,971.35
2018-01-18T10:46:50.520Z,971.46
2018-01-18T10:47:50.440Z,971.18
2018-01-18T10:48:50.360Z,971.39
2018-01-18T10:49:50.279Z,971.41
2018-01-18T10:50:50.199Z,971.28
2018-01-18T10:51:50.120Z,971.28
2018-01-18T10:52:50.040Z,971.15
2018-01-18T10:53:49.979Z,971.23
2018-01-18T10:54:49.880Z,971.20
2018-01-18T10:55:49.799Z,971.08
2018-01-18T10:56:49.730Z,970.94
2018-01-18T10:57:49.639Z,971.23
2018-01-18T10:58:49.563Z,970.81
2018-01-18T10:59:49.480Z,971.05
2018-01-18T11:00:49.401Z,971.15
2018-01-18T11:01:49.323Z,971.25
2018-01-18T11:02:49.243Z,971.29
2018-01-18T11:03:49.163Z,971.41
2018-01-18T11:04:49.083Z,971.19
2018-01-18T11:05:49.003Z,971.22
2018-01-18T11:06:48.927Z,971.44
2018-01-18T11:07:48.845Z,971.52
2018-01-18T11:08:48.819Z,971.51
2018-01-18T11:09:48.686Z,971.33
2018-01-18T11:10:48.653Z,971.43
2018-01-18T11:11:48.527Z,971.37
2018-01-18T11:12:48.449Z,971.50
2018-01-18T11:13:48.369Z,971.39
2018-01-18T11:14:48.289Z,971.44
2018-01-18T11:15:48.210Z,971.35
2018-01-18T11:16:48.131Z,971.42
2018-01-18T11:17:48.051Z,971.37
2018-01-18T11:18:47.976Z,971.36
2018-01-18T11:19:47.893Z,971.51
2018-01-18T11:20:47.813Z,971.54
2018-01-18T11:21:47.734Z,971.72
2018-01-18T11:22:47.656Z,971.85
2018-01-18T11:23:47.576Z,971.52
2018-01-18T11:24:47.498Z,971.46
2018-01-18T11:25:47.418Z,971.11
2018-01-18T11:26:47.339Z,971.31
2018-01-18T11:27:47.260Z,971.49
2018-01-18T11:28:47.182Z,971.18
2018-01-18T11:29:47.103Z,971.28
2018-01-18T11:30:47.023Z,971.14
2018-01-18T11:31:46.946Z,971.23
2018-01-18T11:32:46.865Z,971.31
2018-01-18T11:33:46.792Z,971.33
2018-01-18T11:34:46.707Z,971.32
2018-01-18T11:35:46.628Z,971.35
2018-01-18T11:36:46.549Z,971.23
2018-01-18T11:37:46.470Z,971.28
2018-01-18T11:38:46.390Z,971.13
2018-01-18T11:39:46.312Z,971.20
2018-01-18T11:40:46.233Z,971.15
2018-01-18T11:41:46.160Z,971.09
2018-01-18T11:42:46.076Z,971.15
2018-01-18T11:43:45.998Z,971.20
2018-01-18T11:44:45.918Z,970.97
2018-01-18T11:45:45.839Z,971.23
2018-01-18T11:46:45.760Z,971.11
2018-01-18T11:47:45.682Z,971.25
2018-01-18T11:48:45.603Z,971.15
2018-01-18T11:49:45.523Z,971.30
2018-01-18T11:50:45.444Z,971.32
2018-01-18T11:51:45.366Z,971.23
2018-01-18T11:52:45.287Z,971.28
2018-01-18T11:53:45.207Z,971.32
2018-01-18T11:54:45.130Z,971.38
2018-01-18T11:55:45.051Z,971.31
2018-01-18T11:56:44.972Z,971.35
2018-01-18T11:57:44.892Z,970.96
2018-01-18T11:58:44.812Z,971.20
2018-01-18T11:59:44.734Z,971.30
2018-01-18T12:00:44.656Z,971.40
2018-01-18T12:01:44.576Z,971.26
2018-01-18T12:02:44.497Z,971.13
2018-01-18T12:03:44.419Z,971.25
2018-01-18T12:04:44.340Z,971.56
2018-01-18T12:05:44.265Z,971.50
2018-01-18T12:06:44.183Z,971.32
2018-01-18T12:07:44.103Z,971.26
2018-01-18T12:08:44.025Z,971.29
2018-01-18T12:09:43.945Z,971.54
2018-01-18T12:10:43.867Z,971.46
2018-01-18T12:11:43.787Z,971.26
2018-01-18T12:12:43.709Z,971.35
2018-01-18T12:13:43.629Z,971.23
2018-01-18T12:14:43.549Z,971.43
2018-01-18T12:15:43.471Z,971.57
2018-01-18T12:16:43.392Z,971.65
2018-01-18T12:17:43.312Z,971.62
2018-01-18T12:18:43.235Z,971.92
2018-01-18T12:19:43.156Z,971.93
2018-01-18T12:20:43.076Z,972.05
2018-01-18T12:21:42.996Z,972.03
2018-01-18T12:22:42.941Z,972.11
2018-01-18T12:23:42.838Z,972.03
2018-01-18T12:24:42.760Z,972.09
2018-01-18T12:25:42.680Z,972.10
2018-01-18T12:26:42.601Z,972.09
2018-01-18T12:27:42.523Z,972.06
2018-01-18T12:28:42.442Z,972.16